Time;durP1;ratioP1;P1;durP2;ratioP2;P2;SDS_P1;SDS_P2;PMS_P1;PMS_P2;Temp;Humidity;BMP_temperature;BMP_pressure;BME280_temperature;BME280_humidity;BME280_pressure;Samples;Min_cycle;Max_cycle;Signal;HPM_P1;HPM_P2
2022/08/13 00:01:24;;;;;;;4.82;1.80;;;25.90;37.70;;;;;;5031754;28;20049;-68
2022/08/13 00:03:52;;;;;;;5.40;2.35;;;25.90;37.70;;;;;;5002067;28;20045;-68
2022/08/13 00:09:04;;;;;;;5.25;2.25;;;25.80;38.00;;;;;;5036444;28;20498;-68
2022/08/13 00:14:15;;;;;;;5.18;2.15;;;25.70;38.00;;;;;;5008264;28;20038;-68
2022/08/13 00:16:41;;;;;;;5.25;2.22;;;25.70;38.00;;;;;;5030532;28;20060;-68
2022/08/13 00:19:07;;;;;;;5.40;2.15;;;25.60;38.00;;;;;;5026885;28;20157;-68
2022/08/13 00:21:33;;;;;;;3.35;1.70;;;25.60;38.10;;;;;;5035256;28;20033;-68
2022/08/13 00:23:59;;;;;;;5.75;2.28;;;25.60;38.20;;;;;;5031395;28;20040;-68
2022/08/13 00:26:26;;;;;;;6.95;2.65;;;25.60;38.40;;;;;;5013827;28;20034;-69
2022/08/13 00:28:54;;;;;;;5.05;2.35;;;25.50;38.30;;;;;;5001651;28;20022;-68
2022/08/13 00:31:20;;;;;;;4.20;2.00;;;25.50;38.40;;;;;;5018459;28;20029;-68
2022/08/13 00:33:47;;;;;;;5.18;2.08;;;25.50;38.50;;;;;;5028912;28;20363;-69
2022/08/13 00:36:13;;;;;;;7.85;2.42;;;25.40;38.50;;;;;;5035943;28;20041;-69
2022/08/13 00:38:44;;;;;;;6.13;2.08;;;25.40;38.50;;;;;;5027033;28;20037;-68
2022/08/13 00:41:13;;;;;;;3.78;1.90;;;25.40;38.40;;;;;;5032453;28;20418;-68
2022/08/13 00:43:39;;;;;;;4.47;2.05;;;25.40;38.40;;;;;;5022055;28;20041;-68
2022/08/13 00:46:05;;;;;;;5.10;2.00;;;25.30;38.50;;;;;;5021049;28;20037;-68
2022/08/13 00:48:42;;;;;;;4.38;2.00;;;25.30;38.60;;;;;;5022264;28;20022;-69
2022/08/13 00:51:10;;;;;;;4.75;1.90;;;25.30;38.70;;;;;;5025221;28;20026;-68
2022/08/13 00:53:40;;;;;;;5.20;1.90;;;25.20;38.70;;;;;;5014573;28;20026;-68
2022/08/13 00:56:10;;;;;;;4.15;2.05;;;25.20;38.90;;;;;;5007303;28;20067;-68
2022/08/13 00:58:36;;;;;;;5.15;2.20;;;25.20;39.10;;;;;;5034387;28;20458;-68
2022/08/13 01:01:03;;;;;;;4.57;2.17;;;25.10;39.00;;;;;;5023570;28;20114;-68
2022/08/13 01:03:32;;;;;;;3.78;1.85;;;25.10;39.10;;;;;;5014289;28;20999;-68
2022/08/13 01:06:01;;;;;;;4.80;2.28;;;25.10;39.10;;;;;;5000669;28;20337;-68
2022/08/13 01:08:31;;;;;;;4.32;2.13;;;25.10;39.10;;;;;;5016736;28;20033;-68
2022/08/13 01:11:03;;;;;;;5.82;2.30;;;25.00;39.10;;;;;;5034487;28;20486;-68
2022/08/13 01:13:33;;;;;;;5.03;1.95;;;25.00;39.20;;;;;;5031618;28;20426;-68
2022/08/13 01:16:00;;;;;;;6.07;2.20;;;25.00;39.40;;;;;;5027574;28;20075;-68
2022/08/13 01:18:27;;;;;;;6.57;2.28;;;24.90;39.40;;;;;;5035491;28;20343;-68
2022/08/13 01:21:00;;;;;;;4.13;1.90;;;24.90;39.60;;;;;;5017782;28;20043;-68
2022/08/13 01:23:30;;;;;;;5.70;1.83;;;24.90;39.60;;;;;;5029004;28;20573;-68
2022/08/13 01:25:57;;;;;;;5.60;2.15;;;24.80;39.70;;;;;;5024437;28;20049;-68
2022/08/13 01:28:23;;;;;;;3.83;1.75;;;24.80;39.80;;;;;;5034221;28;20022;-68
2022/08/13 01:30:50;;;;;;;5.60;2.03;;;24.80;39.90;;;;;;5034683;28;20034;-68
2022/08/13 01:33:17;;;;;;;5.15;1.90;;;24.70;39.80;;;;;;5027488;28;20336;-68
2022/08/13 01:35:45;;;;;;;4.07;1.75;;;24.70;39.90;;;;;;5019966;28;20037;-68
2022/08/13 01:38:12;;;;;;;4.63;2.00;;;24.70;39.90;;;;;;5033818;28;20117;-68
2022/08/13 01:40:38;;;;;;;4.78;2.00;;;24.70;39.80;;;;;;5030372;28;20044;-68
2022/08/13 01:43:05;;;;;;;4.18;1.90;;;24.70;39.90;;;;;;5026653;28;20030;-69
2022/08/13 01:45:31;;;;;;;4.25;1.90;;;24.70;40.00;;;;;;5006278;28;20026;-68
2022/08/13 01:50:49;;;;;;;4.32;1.70;;;24.70;40.00;;;;;;5015676;28;20052;-68
2022/08/13 01:53:16;;;;;;;4.82;1.90;;;24.60;40.10;;;;;;5030227;28;20053;-68
2022/08/13 01:55:48;;;;;;;4.93;2.20;;;24.60;40.10;;;;;;5021472;28;20472;-68
2022/08/13 01:58:24;;;;;;;4.35;2.10;;;24.60;40.10;;;;;;5025977;28;20030;-68
2022/08/13 02:00:53;;;;;;;6.18;2.13;;;24.60;39.90;;;;;;5034761;28;20037;-68
2022/08/13 02:03:20;;;;;;;4.72;1.70;;;24.60;40.00;;;;;;5029191;28;20143;-68
2022/08/13 02:05:47;;;;;;;4.80;2.00;;;24.60;40.00;;;;;;5021416;28;20029;-68
2022/08/13 02:08:18;;;;;;;6.50;2.10;;;24.50;40.10;;;;;;5033446;28;20029;-68
2022/08/13 02:10:44;;;;;;;8.05;2.00;;;24.50;40.10;;;;;;5034445;28;20446;-68
2022/08/13 02:13:14;;;;;;;3.83;1.90;;;24.50;40.20;;;;;;5025436;28;20525;-68
2022/08/13 02:15:41;;;;;;;5.47;1.77;;;24.40;40.40;;;;;;5025270;28;20037;-68
2022/08/13 02:18:12;;;;;;;4.68;2.00;;;24.40;40.50;;;;;;5033559;28;20068;-68
2022/08/13 02:20:38;;;;;;;3.78;1.73;;;24.40;40.50;;;;;;5034446;28;20044;-68
2022/08/13 02:23:08;;;;;;;4.80;1.88;;;24.40;40.50;;;;;;5020277;28;20366;-68
2022/08/13 02:25:36;;;;;;;4.53;1.90;;;24.30;40.60;;;;;;5029833;28;20033;-68
2022/08/13 02:28:02;;;;;;;3.95;1.80;;;24.30;40.60;;;;;;5013498;28;20032;-68
2022/08/13 02:30:29;;;;;;;4.75;1.75;;;24.30;40.70;;;;;;5028442;28;20029;-69
2022/08/13 02:32:56;;;;;;;2.55;1.50;;;24.20;40.70;;;;;;5029605;28;20423;-68
2022/08/13 02:35:26;;;;;;;4.97;2.15;;;24.20;40.70;;;;;;5025524;28;20022;-68
2022/08/13 02:37:52;;;;;;;3.90;1.80;;;24.20;40.70;;;;;;5034586;28;20323;-68
2022/08/13 02:43:02;;;;;;;3.83;1.83;;;24.10;41.30;;;;;;5018581;28;20432;-68
2022/08/13 02:45:29;;;;;;;5.75;2.08;;;24.10;40.60;;;;;;5030052;28;20110;-69
2022/08/13 02:47:56;;;;;;;3.60;1.92;;;24.10;40.60;;;;;;5037984;28;20378;-68
2022/08/13 02:50:26;;;;;;;3.53;1.60;;;24.10;40.70;;;;;;5030722;28;20056;-68
2022/08/13 02:52:52;;;;;;;4.63;1.70;;;24.10;40.70;;;;;;5032926;28;20033;-68
2022/08/13 02:55:22;;;;;;;4.43;1.70;;;24.10;40.70;;;;;;5035321;28;20033;-68
2022/08/13 02:57:49;;;;;;;4.72;1.52;;;24.10;40.90;;;;;;5031344;28;20084;-68
2022/08/13 03:00:19;;;;;;;3.92;2.00;;;24.00;41.00;;;;;;5034143;28;20069;-68
2022/08/13 03:02:45;;;;;;;4.93;1.77;;;24.00;41.10;;;;;;5024969;28;20026;-68
2022/08/13 03:05:17;;;;;;;5.95;2.00;;;24.00;41.20;;;;;;5016366;28;20315;-68
2022/08/13 03:07:48;;;;;;;3.70;1.63;;;24.00;41.20;;;;;;5037563;28;20025;-68
2022/08/13 03:10:17;;;;;;;3.45;1.65;;;23.90;41.20;;;;;;5032276;28;20543;-68
2022/08/13 03:12:49;;;;;;;7.05;2.17;;;23.90;41.20;;;;;;5032211;28;20056;-68
2022/08/13 03:15:16;;;;;;;3.08;1.65;;;23.90;41.20;;;;;;5031007;28;20029;-68
2022/08/13 03:17:43;;;;;;;4.90;1.90;;;23.90;41.30;;;;;;5021132;28;20462;-68
2022/08/13 03:20:16;;;;;;;2.97;1.50;;;23.80;41.20;;;;;;5031126;28;20431;-68
2022/08/13 03:22:49;;;;;;;4.10;1.60;;;23.80;41.30;;;;;;5007770;28;20064;-68
2022/08/13 03:25:16;;;;;;;4.78;1.85;;;23.80;41.30;;;;;;5023962;28;20060;-68
2022/08/13 03:27:42;;;;;;;9.23;1.90;;;23.80;41.40;;;;;;5034223;28;20116;-68
2022/08/13 03:30:11;;;;;;;3.22;1.73;;;23.80;41.50;;;;;;5036403;28;20363;-68
2022/08/13 03:32:45;;;;;;;3.72;1.70;;;23.70;42.30;;;;;;5032489;28;20045;-68
2022/08/13 03:35:14;;;;;;;4.07;1.63;;;23.70;41.70;;;;;;5028628;28;20029;-68
2022/08/13 03:37:41;;;;;;;3.65;1.80;;;23.60;41.70;;;;;;5036484;28;20120;-68
2022/08/13 03:40:08;;;;;;;4.45;1.80;;;23.60;41.80;;;;;;5032840;28;20049;-68
2022/08/13 03:42:34;;;;;;;3.72;1.88;;;23.60;41.90;;;;;;5016158;28;20029;-68
2022/08/13 03:45:03;;;;;;;3.33;1.50;;;23.60;41.70;;;;;;5022245;28;20029;-68
2022/08/13 03:47:28;;;;;;;5.15;2.28;;;23.60;41.60;;;;;;5028663;28;20112;-68
2022/08/13 03:49:54;;;;;;;3.63;1.75;;;23.60;41.60;;;;;;5034366;28;20101;-68
2022/08/13 03:52:20;;;;;;;4.88;1.80;;;23.60;41.70;;;;;;5024494;28;20037;-68
2022/08/13 03:54:46;;;;;;;5.30;1.73;;;23.60;41.80;;;;;;5031906;28;20029;-69
2022/08/13 03:57:12;;;;;;;3.47;1.45;;;23.60;41.90;;;;;;5023472;28;20108;-68
2022/08/13 03:59:38;;;;;;;5.30;1.80;;;23.60;41.90;;;;;;5037166;28;20037;-68
2022/08/13 04:02:04;;;;;;;4.00;1.42;;;23.60;42.10;;;;;;5019499;28;20021;-68
2022/08/13 04:04:30;;;;;;;4.15;1.70;;;23.50;42.10;;;;;;5015923;28;20103;-68
2022/08/13 04:06:57;;;;;;;3.70;1.90;;;23.50;42.10;;;;;;5020760;28;20037;-68
2022/08/13 04:09:23;;;;;;;3.05;1.45;;;23.50;42.10;;;;;;5017334;28;20033;-68
2022/08/13 04:11:48;;;;;;;3.75;1.80;;;23.50;42.00;;;;;;5008721;28;20451;-68
2022/08/13 04:14:14;;;;;;;4.13;1.90;;;23.50;42.10;;;;;;5010628;28;20029;-68
2022/08/13 04:16:40;;;;;;;5.63;1.85;;;23.50;42.20;;;;;;5014705;28;20080;-68
2022/08/13 04:19:06;;;;;;;4.85;1.70;;;23.40;42.20;;;;;;5015572;28;20034;-68
2022/08/13 04:21:34;;;;;;;4.28;1.73;;;23.40;42.10;;;;;;5016008;28;20040;-68
2022/08/13 04:24:04;;;;;;;3.38;1.63;;;23.40;42.00;;;;;;5015380;28;20032;-68
2022/08/13 04:26:31;;;;;;;4.35;1.90;;;23.40;42.10;;;;;;5014774;28;20041;-69
2022/08/13 04:28:57;;;;;;;4.68;1.80;;;23.40;42.10;;;;;;5014956;28;20030;-68
2022/08/13 04:31:26;;;;;;;4.45;1.88;;;23.40;42.10;;;;;;5016212;28;20025;-68
2022/08/13 04:33:52;;;;;;;2.95;1.50;;;23.40;42.20;;;;;;5014530;28;20045;-68
2022/08/13 04:36:18;;;;;;;3.97;1.50;;;23.40;42.10;;;;;;5014324;28;20026;-68
2022/08/13 04:38:43;;;;;;;3.53;1.55;;;23.40;42.10;;;;;;5015092;28;20371;-68
2022/08/13 04:41:09;;;;;;;3.75;1.60;;;23.40;42.20;;;;;;5013716;28;20121;-68
2022/08/13 04:43:35;;;;;;;3.67;1.80;;;23.40;42.30;;;;;;5011682;28;20036;-68
2022/08/13 04:46:01;;;;;;;3.67;1.67;;;23.40;42.50;;;;;;5014783;28;20033;-68
2022/08/13 04:48:35;;;;;;;4.30;1.80;;;23.40;42.60;;;;;;5015349;28;20470;-68
2022/08/13 04:51:00;;;;;;;6.13;1.67;;;23.40;42.60;;;;;;5010440;28;20034;-68
2022/08/13 04:53:29;;;;;;;3.25;1.50;;;23.40;42.70;;;;;;5035220;28;20017;-68
2022/08/13 04:55:56;;;;;;;2.55;1.30;;;23.30;42.70;;;;;;5030777;28;20167;-68
2022/08/13 04:58:23;;;;;;;4.90;2.00;;;23.40;42.80;;;;;;5018251;28;20029;-68
2022/08/13 05:00:50;;;;;;;4.65;1.90;;;23.40;42.90;;;;;;5036108;28;20029;-68
2022/08/13 05:03:23;;;;;;;3.00;1.63;;;23.40;43.00;;;;;;5034459;28;20518;-68
2022/08/13 05:05:51;;;;;;;3.72;1.90;;;23.40;42.90;;;;;;5012894;28;20471;-68
2022/08/13 05:08:18;;;;;;;4.70;1.60;;;23.30;42.90;;;;;;5028127;28;20026;-68
2022/08/13 05:10:48;;;;;;;2.53;1.35;;;23.30;42.90;;;;;;5020251;28;20034;-69
2022/08/13 05:13:27;;;;;;;3.15;1.52;;;23.40;43.00;;;;;;5027474;28;20050;-69
2022/08/13 05:15:55;;;;;;;2.90;1.58;;;23.40;43.00;;;;;;5008525;28;20048;-69
2022/08/13 05:18:21;;;;;;;6.07;1.52;;;23.40;43.00;;;;;;5010285;28;20041;-69
2022/08/13 05:20:48;;;;;;;4.47;1.48;;;23.40;43.10;;;;;;5035197;28;20045;-69
2022/08/13 05:23:14;;;;;;;2.95;1.60;;;23.40;43.00;;;;;;5035454;28;20060;-69
2022/08/13 05:25:41;;;;;;;5.03;1.75;;;23.40;43.00;;;;;;5019420;28;20038;-69
2022/08/13 05:28:08;;;;;;;2.63;1.48;;;23.40;42.90;;;;;;5020183;28;20029;-69
2022/08/13 05:30:37;;;;;;;5.35;2.00;;;23.50;43.30;;;;;;5022787;28;20040;-69
2022/08/13 05:33:18;;;;;;;3.22;1.70;;;23.50;43.30;;;;;;5007668;28;20029;-69
2022/08/13 05:35:49;;;;;;;3.38;1.60;;;23.50;43.40;;;;;;5017569;28;20030;-68
2022/08/13 05:38:17;;;;;;;5.00;1.85;;;23.60;43.50;;;;;;5021315;28;20018;-68
2022/08/13 05:40:43;;;;;;;4.03;1.70;;;23.70;43.40;;;;;;5027658;28;20116;-68
2022/08/13 05:43:16;;;;;;;4.28;1.75;;;23.80;43.10;;;;;;5031901;28;20029;-68
2022/08/13 05:45:43;;;;;;;4.65;2.15;;;23.80;43.00;;;;;;5025484;28;20036;-68
2022/08/13 05:48:09;;;;;;;4.25;1.60;;;23.90;43.20;;;;;;5019261;28;20036;-68
2022/08/13 05:50:35;;;;;;;3.75;1.77;;;24.00;43.00;;;;;;5033393;28;20044;-68
2022/08/13 05:53:10;;;;;;;5.10;1.60;;;24.00;42.80;;;;;;5020405;28;20037;-68
2022/08/13 05:55:38;;;;;;;4.25;1.65;;;24.10;42.80;;;;;;5019261;28;20026;-68
2022/08/13 05:58:05;;;;;;;4.55;1.65;;;24.20;42.60;;;;;;5018479;28;20025;-68
2022/08/13 06:03:24;;;;;;;4.10;1.70;;;24.30;42.50;;;;;;5030458;28;20022;-68
2022/08/13 06:05:53;;;;;;;4.20;1.83;;;24.40;42.30;;;;;;5011900;28;20037;-68
2022/08/13 06:08:23;;;;;;;5.28;1.65;;;24.50;42.10;;;;;;5015342;28;20041;-68
2022/08/13 06:10:48;;;;;;;3.17;1.60;;;24.70;42.10;;;;;;5021025;28;20033;-68
2022/08/13 06:13:16;;;;;;;4.57;1.98;;;24.80;41.90;;;;;;5032902;28;20052;-68
2022/08/13 06:15:43;;;;;;;5.53;1.90;;;25.00;41.80;;;;;;5033834;28;20454;-68
2022/08/13 06:18:12;;;;;;;5.25;2.05;;;25.30;41.60;;;;;;5018073;28;20041;-68
2022/08/13 06:20:40;;;;;;;4.05;1.77;;;25.60;41.20;;;;;;5024769;28;20022;-69
2022/08/13 06:23:15;;;;;;;3.60;1.60;;;25.80;40.80;;;;;;5034675;28;20033;-69
2022/08/13 06:25:41;;;;;;;3.28;1.52;;;26.10;40.80;;;;;;5024413;28;20370;-69
2022/08/13 06:28:10;;;;;;;4.10;1.88;;;26.30;40.70;;;;;;5023678;28;20116;-69
2022/08/13 06:30:37;;;;;;;4.18;1.80;;;26.50;40.80;;;;;;5033208;28;20312;-69
2022/08/13 06:33:04;;;;;;;4.65;2.15;;;26.60;40.70;;;;;;5030893;28;20439;-69
2022/08/13 06:35:31;;;;;;;4.22;1.67;;;26.70;40.50;;;;;;5033325;28;20025;-69
2022/08/13 06:37:57;;;;;;;4.05;2.10;;;26.80;40.00;;;;;;5033849;28;20079;-69
2022/08/13 06:40:23;;;;;;;3.38;1.67;;;27.00;39.80;;;;;;5016565;28;20030;-69
2022/08/13 06:42:51;;;;;;;5.55;1.80;;;27.10;39.70;;;;;;5025059;28;20041;-69
2022/08/13 06:45:20;;;;;;;4.22;1.95;;;27.20;39.40;;;;;;5027629;28;20029;-69
2022/08/13 06:47:48;;;;;;;5.57;2.35;;;27.40;39.30;;;;;;5027662;28;20029;-69
2022/08/13 06:50:13;;;;;;;4.65;1.80;;;27.50;39.00;;;;;;5026333;28;20034;-69
2022/08/13 06:52:39;;;;;;;4.20;1.92;;;27.60;38.80;;;;;;5033941;28;20120;-69
2022/08/13 06:55:07;;;;;;;5.82;2.40;;;27.80;38.70;;;;;;5014718;28;20033;-69
2022/08/13 06:57:36;;;;;;;4.13;1.80;;;27.90;38.60;;;;;;5011244;28;20358;-70
2022/08/13 07:00:06;;;;;;;4.72;1.90;;;28.10;38.40;;;;;;5007945;28;20097;-71
2022/08/13 07:02:34;;;;;;;4.43;2.05;;;28.20;38.00;;;;;;5021307;28;20106;-71
2022/08/13 07:05:00;;;;;;;4.50;1.90;;;28.40;38.00;;;;;;5014461;28;20363;-71
2022/08/13 07:07:27;;;;;;;5.03;1.85;;;28.50;37.90;;;;;;5017168;28;20022;-71
2022/08/13 07:09:54;;;;;;;3.97;1.83;;;28.70;37.80;;;;;;5017027;28;20022;-71
2022/08/13 07:12:20;;;;;;;4.97;2.05;;;28.80;37.70;;;;;;5015406;28;20045;-71
2022/08/13 07:14:46;;;;;;;4.10;2.15;;;28.90;37.40;;;;;;5012948;28;20411;-71
2022/08/13 07:17:11;;;;;;;4.57;2.13;;;29.00;37.30;;;;;;5030525;28;20041;-71
2022/08/13 07:19:38;;;;;;;4.30;2.03;;;29.10;37.20;;;;;;5033573;28;20029;-71
2022/08/13 07:22:04;;;;;;;4.80;2.33;;;29.20;37.00;;;;;;5015631;28;20041;-71
2022/08/13 07:24:31;;;;;;;3.50;1.90;;;29.30;37.00;;;;;;5016966;28;20111;-71
2022/08/13 07:27:03;;;;;;;4.70;2.00;;;29.30;36.90;;;;;;5018965;28;20033;-71
2022/08/13 07:29:30;;;;;;;3.58;1.88;;;29.50;36.90;;;;;;5014081;28;20022;-73
2022/08/13 07:32:01;;;;;;;5.05;1.85;;;29.60;36.80;;;;;;5010582;28;20030;-70
2022/08/13 07:34:31;;;;;;;6.55;2.13;;;29.70;36.70;;;;;;5003118;28;20052;-69
2022/08/13 07:36:59;;;;;;;5.30;2.07;;;29.80;36.70;;;;;;5014703;28;20026;-70
2022/08/13 07:39:25;;;;;;;5.80;2.10;;;29.90;36.40;;;;;;5027455;28;20050;-69
2022/08/13 07:41:51;;;;;;;7.70;2.10;;;30.00;36.50;;;;;;5019981;28;20160;-69
2022/08/13 07:44:22;;;;;;;4.60;1.83;;;30.10;37.20;;;;;;5002170;28;20034;-69
2022/08/13 07:46:50;;;;;;;5.47;1.95;;;30.10;36.30;;;;;;5026997;28;20340;-69
2022/08/13 07:49:17;;;;;;;4.90;2.20;;;30.20;36.20;;;;;;5030518;28;20058;-69
2022/08/13 07:51:43;;;;;;;5.57;1.70;;;30.30;36.00;;;;;;5010457;28;20066;-69
2022/08/13 07:54:12;;;;;;;4.78;1.95;;;30.40;36.10;;;;;;5016093;28;20556;-70
2022/08/13 07:56:39;;;;;;;4.72;1.70;;;30.50;35.90;;;;;;5015035;28;20073;-70
2022/08/13 07:59:07;;;;;;;5.47;2.08;;;30.70;36.00;;;;;;5019039;28;20029;-70
2022/08/13 08:01:50;;;;;;;5.18;1.83;;;30.70;35.80;;;;;;5017069;28;20527;-69
2022/08/13 08:04:17;;;;;;;4.07;1.80;;;30.80;35.60;;;;;;5023244;28;20025;-70
2022/08/13 08:06:47;;;;;;;3.55;1.73;;;30.90;35.60;;;;;;5029856;28;20046;-70
2022/08/13 08:09:21;;;;;;;5.70;1.90;;;31.00;35.70;;;;;;5007667;28;20034;-70
2022/08/13 08:14:33;;;;;;;4.88;1.73;;;31.10;35.30;;;;;;5009004;28;20053;-70
2022/08/13 08:17:00;;;;;;;2.72;1.48;;;31.30;35.40;;;;;;5028821;28;20068;-70
2022/08/13 08:19:27;;;;;;;3.90;1.90;;;31.30;35.30;;;;;;5010962;28;20073;-75
2022/08/13 08:21:57;;;;;;;4.65;2.00;;;31.40;35.10;;;;;;5019616;28;20045;-73
2022/08/13 08:24:23;;;;;;;4.97;2.30;;;31.50;35.10;;;;;;5015165;28;20029;-71
2022/08/13 08:26:49;;;;;;;2.90;1.60;;;31.60;35.10;;;;;;5031025;28;20314;-70
2022/08/13 08:29:16;;;;;;;4.75;1.80;;;31.70;34.90;;;;;;5017186;28;20366;-70
2022/08/13 08:31:44;;;;;;;3.97;2.03;;;31.70;34.70;;;;;;5018392;28;20030;-71
2022/08/13 08:34:11;;;;;;;4.78;1.80;;;31.80;34.70;;;;;;5014969;28;20112;-71
2022/08/13 08:36:39;;;;;;;3.83;1.70;;;31.80;34.60;;;;;;5025456;28;20129;-69
2022/08/13 08:44:38;;;;;;;4.05;1.70;;;32.10;34.30;;;;;;5024381;28;20029;-69
2022/08/13 08:47:04;;;;;;;6.20;2.28;;;32.20;34.20;;;;;;5019926;28;20034;-70
2022/08/13 08:49:30;;;;;;;5.85;2.25;;;32.30;34.10;;;;;;5015674;28;20479;-70
2022/08/13 08:51:57;;;;;;;7.88;2.08;;;32.40;34.10;;;;;;5011137;28;20096;-70
2022/08/13 08:54:24;;;;;;;4.22;1.95;;;32.40;33.90;;;;;;5007526;28;20177;-69
2022/08/13 08:56:55;;;;;;;3.95;1.70;;;32.50;33.80;;;;;;5016733;28;20045;-69
2022/08/13 08:59:25;;;;;;;3.65;1.85;;;32.60;33.80;;;;;;5017239;28;20042;-69
2022/08/13 09:01:53;;;;;;;6.00;1.60;;;32.70;33.70;;;;;;5031096;28;20052;-69
2022/08/13 09:04:20;;;;;;;3.35;1.70;;;32.70;33.60;;;;;;5005782;28;20026;-70
2022/08/13 09:06:52;;;;;;;2.63;1.38;;;32.80;33.60;;;;;;5000902;28;20037;-69
2022/08/13 09:09:19;;;;;;;3.17;1.58;;;32.90;33.50;;;;;;5021113;28;20021;-69
2022/08/13 09:11:46;;;;;;;4.18;1.73;;;32.90;33.40;;;;;;5019254;28;20355;-70
2022/08/13 09:14:12;;;;;;;4.30;1.73;;;33.00;33.30;;;;;;5007847;28;20038;-69
2022/08/13 09:16:38;;;;;;;3.92;1.70;;;33.10;33.10;;;;;;5005971;28;20026;-69
2022/08/13 09:19:08;;;;;;;4.20;1.70;;;33.20;32.60;;;;;;5014819;28;20088;-69
2022/08/13 09:21:44;;;;;;;;;;;33.30;32.20;;;;;;5008320;28;20080;-70
2022/08/13 09:24:15;;;;;;;2.72;1.35;;;33.40;32.40;;;;;;5023536;28;19936;-70
2022/08/13 09:26:51;;;;;;;2.83;1.08;;;33.50;32.10;;;;;;5021695;28;20025;-70
2022/08/13 09:29:19;;;;;;;5.25;1.40;;;33.50;31.70;;;;;;5018895;28;20030;-69
2022/08/13 09:31:58;;;;;;;3.33;1.70;;;33.60;31.60;;;;;;5023903;28;20124;-70
2022/08/13 09:34:26;;;;;;;2.53;1.30;;;33.70;31.70;;;;;;5021081;28;20030;-70
2022/08/13 09:36:56;;;;;;;4.40;1.63;;;33.70;31.50;;;;;;5005156;28;20033;-69
2022/08/13 09:39:49;;;;;;;3.15;1.63;;;33.90;31.30;;;;;;5028038;28;20381;-69
2022/08/13 09:42:33;;;;;;;3.72;1.58;;;33.90;31.30;;;;;;5021388;28;20334;-68
2022/08/13 09:45:00;;;;;;;4.93;1.60;;;34.00;31.10;;;;;;5030073;28;20041;-69
2022/08/13 09:47:26;;;;;;;3.65;1.50;;;34.10;31.10;;;;;;5016685;28;20458;-68
2022/08/13 09:49:53;;;;;;;4.60;1.70;;;34.20;30.90;;;;;;5027435;28;20030;-69
2022/08/13 09:52:20;;;;;;;3.70;1.33;;;34.20;30.80;;;;;;5022396;28;20041;-69
2022/08/13 09:54:48;;;;;;;2.90;1.40;;;34.30;30.70;;;;;;5023504;28;20021;-69
2022/08/13 09:57:13;;;;;;;3.50;1.50;;;34.30;30.50;;;;;;5019151;28;20053;-68
2022/08/13 09:59:39;;;;;;;5.13;1.63;;;34.40;30.50;;;;;;5016201;28;20493;-69
2022/08/13 10:02:12;;;;;;;2.53;1.20;;;34.50;30.40;;;;;;5026623;28;20079;-68
2022/08/13 10:04:39;;;;;;;3.83;1.33;;;34.50;30.20;;;;;;5019886;28;20033;-68
2022/08/13 10:07:07;;;;;;;3.28;1.20;;;34.50;30.20;;;;;;5020668;28;20409;-69
2022/08/13 10:09:34;;;;;;;3.28;1.33;;;34.60;30.00;;;;;;5029555;28;20416;-68
2022/08/13 10:12:06;;;;;;;3.65;1.42;;;34.50;29.90;;;;;;5012780;28;20033;-68
2022/08/13 10:14:33;;;;;;;4.35;1.50;;;34.60;29.90;;;;;;5034153;28;20033;-68
2022/08/13 10:16:59;;;;;;;5.60;1.55;;;34.60;29.90;;;;;;5018248;28;20076;-69
2022/08/13 10:19:25;;;;;;;2.22;1.30;;;34.60;29.80;;;;;;5018799;28;20049;-69
2022/08/13 10:21:51;;;;;;;4.57;1.45;;;34.60;29.80;;;;;;5012916;28;20098;-70
2022/08/13 10:24:17;;;;;;;2.20;1.30;;;34.70;29.70;;;;;;5008279;28;20583;-69
2022/08/13 10:26:42;;;;;;;3.13;1.40;;;34.70;29.70;;;;;;5007641;28;20029;-69
2022/08/13 10:29:09;;;;;;;2.72;1.20;;;34.90;29.70;;;;;;5006322;28;20352;-69
2022/08/13 10:31:35;;;;;;;3.78;1.38;;;35.00;29.60;;;;;;5005187;28;20018;-70
2022/08/13 10:34:03;;;;;;;2.85;1.38;;;35.00;29.40;;;;;;5005402;28;20371;-70
2022/08/13 10:36:31;;;;;;;2.75;1.27;;;35.00;29.30;;;;;;5006480;28;20104;-69
2022/08/13 10:38:57;;;;;;;3.08;1.45;;;35.00;29.10;;;;;;5004554;28;20030;-70
2022/08/13 10:41:23;;;;;;;4.55;1.35;;;35.00;29.10;;;;;;5006061;28;20033;-69
2022/08/13 10:43:56;;;;;;;3.38;1.13;;;35.00;29.00;;;;;;5008086;28;20022;-70
2022/08/13 10:46:22;;;;;;;4.75;1.25;;;35.10;29.10;;;;;;5023353;28;20029;-70
2022/08/13 10:48:55;;;;;;;3.00;1.33;;;35.10;29.00;;;;;;5010033;28;20057;-70
2022/08/13 10:51:23;;;;;;;2.17;1.15;;;35.10;29.00;;;;;;5009957;28;20455;-70
2022/08/13 10:53:55;;;;;;;2.83;1.48;;;35.10;28.90;;;;;;5010724;28;20511;-71
2022/08/13 10:56:21;;;;;;;1.67;1.10;;;35.10;29.10;;;;;;5010487;28;20038;-68
2022/08/13 10:58:47;;;;;;;2.17;1.20;;;35.10;29.10;;;;;;5020113;28;20036;-69
2022/08/13 11:01:13;;;;;;;3.33;1.40;;;35.20;29.10;;;;;;5014122;28;20113;-69
2022/08/13 11:03:39;;;;;;;2.95;1.30;;;35.30;28.90;;;;;;5022754;28;20363;-69
2022/08/13 11:06:06;;;;;;;4.35;1.30;;;35.30;28.70;;;;;;5016311;28;20474;-70
2022/08/13 11:08:37;;;;;;;2.05;1.25;;;35.20;28.60;;;;;;5016306;28;20030;-69
2022/08/13 11:11:10;;;;;;;2.97;1.27;;;35.10;28.80;;;;;;5019098;28;20043;-68
2022/08/13 11:13:37;;;;;;;1.98;1.23;;;35.10;28.70;;;;;;5013242;28;20046;-69
2022/08/13 11:16:06;;;;;;;2.95;1.38;;;35.10;28.70;;;;;;5014594;28;20092;-68
2022/08/13 11:18:32;;;;;;;3.17;1.50;;;35.10;28.50;;;;;;5022802;28;20030;-69
2022/08/13 11:21:07;;;;;;;2.45;1.23;;;35.10;28.50;;;;;;5021142;28;20057;-68
2022/08/13 11:23:35;;;;;;;2.22;1.30;;;35.00;28.50;;;;;;5032589;28;20032;-69
2022/08/13 11:26:01;;;;;;;3.03;1.40;;;35.00;28.40;;;;;;5017510;28;20034;-69
2022/08/13 11:28:26;;;;;;;2.10;1.20;;;35.00;28.30;;;;;;5020307;28;20105;-68
2022/08/13 11:30:54;;;;;;;3.47;1.30;;;35.10;28.40;;;;;;5019313;28;20026;-68
2022/08/13 11:33:22;;;;;;;3.85;1.40;;;35.10;28.40;;;;;;5018391;28;20034;-69
2022/08/13 11:35:48;;;;;;;3.47;1.30;;;35.20;28.30;;;;;;5035851;28;20097;-68
2022/08/13 11:38:15;;;;;;;2.45;1.40;;;35.10;28.30;;;;;;5016608;28;20022;-69
2022/08/13 11:40:49;;;;;;;1.83;1.15;;;35.10;28.30;;;;;;5016590;28;20458;-69
2022/08/13 11:43:15;;;;;;;2.17;1.27;;;35.20;28.30;;;;;;5015897;28;20173;-68
2022/08/13 11:45:41;;;;;;;2.72;1.15;;;35.20;28.30;;;;;;5035044;28;20052;-68
2022/08/13 11:48:07;;;;;;;2.67;1.27;;;35.20;28.30;;;;;;5026482;28;20030;-68
2022/08/13 11:50:34;;;;;;;2.55;1.35;;;35.20;28.30;;;;;;5029343;28;20021;-68
2022/08/13 11:52:59;;;;;;;2.70;1.30;;;35.20;28.40;;;;;;5015992;28;20031;-68
2022/08/13 11:55:25;;;;;;;2.42;1.20;;;35.30;28.40;;;;;;5035966;28;20027;-68
2022/08/13 11:58:01;;;;;;;2.72;1.30;;;35.30;28.40;;;;;;5023163;28;20117;-68
2022/08/13 12:00:27;;;;;;;2.30;1.08;;;35.30;28.40;;;;;;5013067;28;20435;-68
2022/08/13 12:02:53;;;;;;;2.95;1.48;;;35.30;28.20;;;;;;5013062;28;20095;-71
2022/08/13 12:05:19;;;;;;;1.30;1.05;;;35.20;28.20;;;;;;5017349;28;20033;-71
2022/08/13 12:07:45;;;;;;;2.03;1.10;;;35.20;28.20;;;;;;5016264;28;20032;-71
2022/08/13 12:10:11;;;;;;;3.70;1.33;;;35.10;28.20;;;;;;5012223;28;20037;-70
2022/08/13 12:12:37;;;;;;;2.35;1.20;;;35.00;28.20;;;;;;5014790;28;20041;-70
2022/08/13 12:15:03;;;;;;;1.83;1.17;;;35.00;28.30;;;;;;5018996;28;20030;-70
2022/08/13 12:17:30;;;;;;;3.35;1.40;;;35.00;28.40;;;;;;5016056;28;20029;-71
2022/08/13 12:19:55;;;;;;;4.82;1.73;;;34.90;28.40;;;;;;5007453;28;20159;-70
2022/08/13 12:22:21;;;;;;;4.63;1.73;;;34.80;28.80;;;;;;4999458;28;20057;-70
2022/08/13 12:24:47;;;;;;;3.92;1.30;;;34.70;28.30;;;;;;5006991;28;20057;-71
2022/08/13 12:27:13;;;;;;;3.65;1.35;;;34.60;28.20;;;;;;5026286;28;20120;-71
2022/08/13 12:29:38;;;;;;;2.45;1.33;;;34.60;28.40;;;;;;5011495;28;20110;-70
2022/08/13 12:32:04;;;;;;;3.67;1.40;;;34.50;28.50;;;;;;5022269;28;20049;-71
2022/08/13 12:34:30;;;;;;;2.03;1.35;;;34.40;28.30;;;;;;5023899;28;20172;-70
2022/08/13 12:36:56;;;;;;;1.63;1.08;;;34.40;28.30;;;;;;5014112;28;20378;-71
2022/08/13 12:39:22;;;;;;;2.58;1.73;;;34.30;28.40;;;;;;5014653;28;20022;-71
2022/08/13 12:41:47;;;;;;;2.30;1.08;;;34.30;28.40;;;;;;4994907;28;20037;-70
2022/08/13 12:44:14;;;;;;;2.03;1.20;;;34.20;28.50;;;;;;5023352;28;20034;-71
2022/08/13 12:46:39;;;;;;;1.73;1.15;;;34.10;28.30;;;;;;5031612;28;20092;-72
2022/08/13 12:49:06;;;;;;;2.30;1.25;;;34.00;28.50;;;;;;5017226;28;20435;-68
2022/08/13 12:51:32;;;;;;;2.03;1.13;;;33.90;28.40;;;;;;5011461;28;20101;-69
2022/08/13 12:53:58;;;;;;;2.53;1.33;;;33.90;28.50;;;;;;5009837;28;20153;-70
2022/08/13 12:56:23;;;;;;;3.08;1.35;;;33.80;28.50;;;;;;5009664;28;20112;-68
2022/08/13 12:58:49;;;;;;;2.28;1.20;;;33.80;28.50;;;;;;4995394;28;20034;-69
2022/08/13 13:01:15;;;;;;;2.60;1.35;;;33.70;28.50;;;;;;5012803;28;20029;-69
2022/08/13 13:03:40;;;;;;;2.75;1.30;;;33.60;28.60;;;;;;5005336;28;20066;-69
2022/08/13 13:06:06;;;;;;;2.42;1.27;;;33.60;28.60;;;;;;5015565;28;20072;-69
2022/08/13 13:08:32;;;;;;;1.25;0.95;;;33.50;28.60;;;;;;5013949;28;20088;-69
2022/08/13 13:11:02;;;;;;;2.85;1.40;;;33.50;28.70;;;;;;5012614;28;20023;-69
2022/08/13 13:13:27;;;;;;;2.40;1.30;;;33.40;28.70;;;;;;5004223;28;20366;-69